Time;durP1;ratioP1;P1;durP2;ratioP2;P2;SDS_P1;SDS_P2;PMS_P1;PMS_P2;Temp;Humidity;BMP_temperature;BMP_pressure;BME280_temperature;BME280_humidity;BME280_pressure;Samples;Min_cycle;Max_cycle;Signal;HPM_P1;HPM_P2
2023/07/16 00:03:45;;;;;;;17.10;9.60;;;;;;;21.57;61.69;98329.56;435342;1254;107945;-42
2023/07/16 00:13:52;;;;;;;16.60;10.80;;;;;;;21.47;62.17;98329.12;435108;1251;358082;-42
2023/07/16 00:23:59;;;;;;;13.20;10.90;;;;;;;21.31;62.44;98316.91;435465;1257;112101;-42
2023/07/16 00:34:06;;;;;;;12.10;10.40;;;;;;;21.10;63.29;98309.13;435219;1251;108571;-41
2023/07/16 00:44:13;;;;;;;16.70;11.40;;;;;;;20.88;63.81;98303.67;435254;1253;99214;-41
2023/07/16 00:54:21;;;;;;;12.50;10.00;;;;;;;20.67;64.51;98300.31;435351;1251;108542;-41
2023/07/16 01:04:28;;;;;;;11.10;10.00;;;;;;;20.55;65.07;98299.47;435319;1251;98817;-41
2023/07/16 01:14:35;;;;;;;14.70;11.00;;;;;;;20.42;65.49;98292.17;436095;1254;110917;-40
2023/07/16 01:24:47;;;;;;;18.10;12.00;;;;;;;20.26;66.16;98286.13;435297;1258;108409;-42
2023/07/16 01:34:55;;;;;;;15.60;11.10;;;;;;;20.15;66.90;98275.61;435284;1264;98574;-42
2023/07/16 01:45:02;;;;;;;13.40;10.20;;;;;;;20.26;66.68;98279.90;435325;1264;107831;-42
2023/07/16 01:55:07;;;;;;;16.70;11.00;;;;;;;20.22;66.75;98284.61;435319;1257;99212;-43
2023/07/16 02:05:14;;;;;;;14.30;11.00;;;;;;;20.07;66.98;98275.89;435225;1256;110967;-42
2023/07/16 02:15:21;;;;;;;12.70;10.00;;;;;;;19.97;67.13;98276.05;435092;1251;108116;-44
2023/07/16 02:25:29;;;;;;;13.50;10.10;;;;;;;19.91;67.23;98279.17;435324;1256;99215;-43
2023/07/16 02:35:36;;;;;;;13.90;11.40;;;;;;;19.75;67.76;98271.15;435270;1261;108502;-42
2023/07/16 02:45:43;;;;;;;13.20;10.70;;;;;;;19.69;68.11;98268.37;435230;1257;99214;-43
2023/07/16 02:55:50;;;;;;;13.80;10.50;;;;;;;19.67;68.26;98273.74;435207;1257;111287;-42
2023/07/16 03:05:57;;;;;;;13.60;11.40;;;;;;;19.68;68.39;98270.67;435327;1251;107918;-42
2023/07/16 03:16:04;;;;;;;16.00;10.70;;;;;;;19.74;68.63;98275.59;435233;1257;99250;-46
2023/07/16 03:26:11;;;;;;;15.80;10.90;;;;;;;19.90;68.65;98273.70;435333;1257;108568;-42
2023/07/16 03:36:19;;;;;;;11.30;10.10;;;;;;;21.42;67.94;98277.34;435394;1251;99218;-43
2023/07/16 03:46:25;;;;;;;19.20;10.20;;;;;;;23.28;65.81;98281.67;435248;1251;111494;-42
2023/07/16 03:56:32;;;;;;;15.80;9.60;;;;;;;24.37;63.32;98286.37;435210;1256;108395;-43
2023/07/16 04:06:39;;;;;;;19.00;9.70;;;;;;;25.29;61.36;98291.64;435373;1251;99205;-42
2023/07/16 04:16:46;;;;;;;11.30;9.00;;;;;;;26.03;59.47;98306.03;435196;1255;107442;-42
2023/07/16 04:26:53;;;;;;;11.60;8.90;;;;;;;26.57;57.47;98305.70;435370;1257;99208;-41
2023/07/16 04:37:01;;;;;;;14.10;8.20;;;;;;;27.08;55.95;98318.48;435433;1257;111688;-42
2023/07/16 04:47:06;;;;;;;9.90;7.60;;;;;;;27.51;54.43;98328.37;435237;1251;107496;-39
2023/07/16 04:57:14;;;;;;;12.50;8.10;;;;;;;27.70;53.45;98338.40;435496;1251;99240;-41
2023/07/16 05:07:21;;;;;;;11.20;7.90;;;;;;;28.18;52.74;98348.67;435356;1251;108626;-42
2023/07/16 05:17:28;;;;;;;12.80;7.60;;;;;;;28.58;51.12;98353.20;435283;1251;99231;-41
2023/07/16 05:37:42;;;;;;;14.80;7.30;;;;;;;28.44;50.39;98368.27;435278;1255;108452;-41
2023/07/16 05:47:49;;;;;;;11.20;7.10;;;;;;;28.86;50.06;98393.16;435324;1257;98513;-42
2023/07/16 05:57:57;;;;;;;7.50;6.50;;;;;;;30.18;50.21;98438.23;435354;1256;107623;-42
2023/07/16 06:08:04;;;;;;;10.50;6.60;;;;;;;30.77;48.53;98462.85;435384;1253;98059;-42
2023/07/16 06:18:11;;;;;;;7.70;7.00;;;;;;;30.99;48.50;98465.51;435512;1254;112708;-42
2023/07/16 06:28:22;;;;;;;7.20;6.50;;;;;;;31.99;47.77;98466.52;435372;1254;99871;-43
2023/07/16 06:38:29;;;;;;;12.60;7.70;;;;;;;32.65;47.14;98478.23;435381;1251;99244;-43
2023/07/16 06:48:36;;;;;;;14.90;7.20;;;;;;;33.13;45.85;98474.74;435445;1256;100246;-43
2023/07/16 07:18:54;;;;;;;9.10;8.20;;;;;;;33.35;44.34;98498.84;435063;1256;99828;-43
2023/07/16 07:49:13;;;;;;;8.30;7.10;;;;;;;33.34;44.11;98522.16;435315;1256;99835;-44
2023/07/16 07:59:20;;;;;;;6.60;6.10;;;;;;;33.27;44.23;98515.70;435386;1256;103504;-42
2023/07/16 08:09:28;;;;;;;9.70;5.80;;;;;;;33.35;43.42;98520.70;435310;1257;99886;-41
2023/07/16 08:19:35;;;;;;;6.00;5.10;;;;;;;33.39;42.66;98530.11;435556;1251;99157;-43
2023/07/16 08:29:42;;;;;;;7.60;5.50;;;;;;;33.26;42.34;98525.63;435318;1255;100056;-43
2023/07/16 08:39:48;;;;;;;8.20;5.80;;;;;;;33.04;41.80;98527.13;435403;1251;99256;-44
2023/07/16 08:49:57;;;;;;;5.90;3.90;;;;;;;33.04;41.67;98529.71;435362;1256;104398;-43
2023/07/16 09:00:03;;;;;;;3.80;3.50;;;;;;;32.90;40.82;98531.50;435238;1255;99498;-42
2023/07/16 09:10:12;;;;;;;5.90;3.50;;;;;;;33.02;40.54;98530.33;435445;1251;99215;-42
2023/07/16 09:40:31;;;;;;;3.40;2.10;;;;;;;33.18;39.04;98520.88;435312;1257;104247;-43
2023/07/16 09:50:39;;;;;;;3.40;2.90;;;;;;;32.87;38.70;98524.66;435438;1257;100655;-43
2023/07/16 10:31:18;;;;;;;2.90;2.00;;;;;;;32.48;38.41;98531.21;435358;1257;103027;-43
2023/07/16 10:41:25;;;;;;;5.40;2.30;;;;;;;32.78;38.32;98530.84;435321;1251;99918;-42
2023/07/16 11:01:38;;;;;;;2.40;2.10;;;;;;;32.98;37.50;98539.06;435108;1254;100878;-42
2023/07/16 11:11:44;;;;;;;3.60;2.70;;;;;;;33.32;37.63;98541.09;435367;1251;97963;-44
2023/07/16 11:21:51;;;;;;;5.70;3.20;;;;;;;33.21;37.58;98541.73;435388;1257;102461;-45
2023/07/16 11:31:55;;;;;;;2.80;2.40;;;;;;;33.59;37.63;98543.59;435242;1255;99523;-42
2023/07/16 11:42:03;;;;;;;2.60;2.40;;;;;;;34.11;37.29;98536.29;435514;1251;97976;-42
2023/07/16 11:52:10;;;;;;;5.70;2.50;;;;;;;33.71;36.19;98522.89;435121;1255;99929;-42
2023/07/16 12:02:18;;;;;;;3.50;2.50;;;;;;;33.86;36.36;98508.52;435277;1251;99234;-42
2023/07/16 12:12:25;;;;;;;2.90;2.50;;;;;;;33.53;35.71;98492.20;434730;1251;787932;-42
2023/07/16 12:32:39;;;;;;;3.40;2.60;;;;;;;33.27;35.70;98489.95;435385;1251;98836;-42
2023/07/16 12:42:44;;;;;;;8.40;3.10;;;;;;;32.81;36.38;98482.28;435468;1255;100148;-43
2023/07/16 12:52:52;;;;;;;3.20;3.00;;;;;;;32.63;37.35;98478.46;435406;1251;99542;-42
2023/07/16 13:13:07;;;;;;;4.40;3.50;;;;;;;31.65;37.95;98469.36;435291;1257;109208;-41
2023/07/16 13:23:15;;;;;;;3.70;3.40;;;;;;;31.54;38.76;98473.13;435271;1260;99244;-42
2023/07/16 13:33:22;;;;;;;4.50;3.90;;;;;;;31.62;38.98;98472.05;435290;1251;109416;-41
2023/07/16 13:43:27;;;;;;;3.70;3.10;;;;;;;32.07;38.60;98472.63;435330;1256;99202;-42
2023/07/16 13:53:34;;;;;;;3.90;3.30;;;;;;;32.35;38.52;98473.22;435242;1251;104366;-41
2023/07/16 14:03:40;;;;;;;3.80;3.50;;;;;;;32.73;38.67;98471.66;435319;1257;100985;-42
2023/07/16 14:23:55;;;;;;;5.50;3.50;;;;;;;32.19;38.69;98474.70;435248;1251;99218;-42
2023/07/16 14:34:03;;;;;;;5.50;4.40;;;;;;;32.31;38.79;98476.32;435492;1251;99233;-42
2023/07/16 14:44:10;;;;;;;4.40;4.00;;;;;;;32.86;38.59;98473.56;435040;1251;104353;-43
2023/07/16 14:54:17;;;;;;;6.40;4.30;;;;;;;33.21;38.48;98470.88;435278;1256;100778;-42
2023/07/16 15:04:28;;;;;;;3.90;3.50;;;;;;;33.20;38.72;98475.73;435201;1251;99240;-43
2023/07/16 15:14:36;;;;;;;3.70;3.40;;;;;;;33.02;38.45;98470.77;435265;1255;100108;-43
2023/07/16 15:24:43;;;;;;;6.70;3.40;;;;;;;32.90;38.30;98459.35;435241;1254;99251;-42
2023/07/16 15:34:50;;;;;;;4.30;3.90;;;;;;;33.05;38.40;98457.95;435231;1256;103772;-42
2023/07/16 15:44:57;;;;;;;4.80;2.80;;;;;;;32.87;38.05;98450.50;435245;1257;99897;-42
2023/07/16 15:55:04;;;;;;;2.10;1.60;;;;;;;32.49;37.97;98454.41;435285;1256;98010;-43
2023/07/16 16:05:12;;;;;;;3.60;2.00;;;;;;;31.64;38.70;98466.13;435137;1256;100021;-42
2023/07/16 16:15:19;;;;;;;2.40;2.20;;;;;;;31.10;39.77;98488.00;435533;1256;99221;-43
2023/07/16 16:25:25;;;;;;;3.40;1.80;;;;;;;31.10;40.39;98492.44;435361;1256;111986;-41
2023/07/16 16:55:44;;;;;;;5.00;2.00;;;;;;;29.59;42.82;98545.67;435271;1251;107383;-41
2023/07/16 17:05:52;;;;;;;6.40;3.00;;;;;;;28.96;44.16;98563.60;435256;1251;99243;-41
2023/07/16 17:16:00;;;;;;;5.00;3.30;;;;;;;28.57;45.15;98568.83;435328;1256;111630;-42
2023/07/16 17:26:07;;;;;;;6.90;3.30;;;;;;;28.23;46.08;98561.73;435271;1251;107276;-42
2023/07/16 17:36:16;;;;;;;9.80;2.70;;;;;;;28.11;46.92;98566.13;435442;1251;99269;-41
2023/07/16 17:46:23;;;;;;;3.50;2.60;;;;;;;27.95;47.39;98559.70;435408;1255;108545;-42
2023/07/16 18:06:36;;;;;;;;;;;;;;;27.37;48.66;98575.05;435527;1256;111914;-42
2023/07/16 18:16:43;;;;;;;6.20;3.80;;;;;;;27.09;49.85;98578.29;435310;1256;107639;-42
2023/07/16 18:26:50;;;;;;;4.10;3.80;;;;;;;26.84;50.41;98587.23;435332;1256;98836;-41
2023/07/16 18:36:57;;;;;;;5.30;3.30;;;;;;;26.60;51.39;98583.18;435278;1250;108610;-40
2023/07/16 18:57:11;;;;;;;8.40;4.00;;;;;;;26.19;53.12;98595.67;435274;1256;110926;-41
2023/07/16 19:07:18;;;;;;;5.00;3.70;;;;;;;25.92;53.99;98605.14;435394;1254;107289;-41
2023/07/16 19:37:37;;;;;;;6.30;5.80;;;;;;;25.23;56.27;98636.35;435251;1251;99228;-44
2023/07/16 19:47:44;;;;;;;6.20;5.60;;;;;;;25.20;56.80;98641.17;435177;1254;111473;-42
2023/07/16 19:57:51;;;;;;;8.70;5.60;;;;;;;25.03;57.43;98650.46;435514;1263;107834;-42
2023/07/16 20:07:56;;;;;;;;;;;;;;;24.71;58.01;98651.04;435214;1256;99212;-42
2023/07/16 20:18:07;;;;;;;6.50;5.80;;;;;;;24.51;58.44;98652.27;435296;1257;109617;-41
2023/07/16 20:28:19;;;;;;;9.10;7.00;;;;;;;24.09;59.18;98655.19;435113;1256;99243;-43
2023/07/16 20:48:32;;;;;;;11.90;6.60;;;;;;;23.50;60.61;98661.84;435158;1257;108551;-41
2023/07/16 20:58:39;;;;;;;10.40;6.90;;;;;;;23.27;61.29;98667.21;435157;1256;99212;-41
2023/07/16 21:08:45;;;;;;;11.80;7.10;;;;;;;23.01;61.92;98661.52;435220;1255;108568;-41
2023/07/16 21:18:52;;;;;;;13.50;7.20;;;;;;;22.86;62.66;98662.99;435264;1251;98006;-41
2023/07/16 21:28:59;;;;;;;13.00;7.50;;;;;;;22.58;63.10;98652.23;435364;1256;112846;-43
2023/07/16 21:39:07;;;;;;;8.50;7.30;;;;;;;22.17;63.68;98653.77;435176;1264;108632;-41
2023/07/16 21:49:14;;;;;;;10.50;7.20;;;;;;;22.03;64.40;98654.02;435295;1256;98794;-42
2023/07/16 22:19:38;;;;;;;9.00;7.60;;;;;;;21.91;65.92;98667.23;435328;1257;110664;-42
2023/07/16 22:29:46;;;;;;;8.80;7.20;;;;;;;21.74;66.48;98665.81;435222;1257;108306;-43
2023/07/16 22:39:52;;;;;;;9.40;7.70;;;;;;;21.60;66.40;98670.84;435224;1251;99204;-42
2023/07/16 23:00:07;;;;;;;6.40;5.60;;;;;;;21.06;67.38;98686.77;435089;1257;99217;-42
2023/07/16 23:10:18;;;;;;;9.60;7.10;;;;;;;21.09;68.05;98691.19;435202;1257;111410;-41
2023/07/16 23:20:26;;;;;;;;;;;;;;;20.94;67.99;98701.11;435070;1257;108248;-41
2023/07/16 23:30:33;;;;;;;10.20;6.80;;;;;;;20.75;68.40;98699.13;435233;1251;99314;-42
2023/07/16 23:40:40;;;;;;;11.10;6.60;;;;;;;20.51;68.63;98692.16;435181;1251;107297;-42
